sensor_id;sensor_type;location;lat;lon;timestamp;temperature;humidity
16846;DHT22;8539;53.188;8.696;2023-04-28T00:02:12;5.00;99.90
16846;DHT22;8539;53.188;8.696;2023-04-28T00:04:38;5.10;99.90
16846;DHT22;8539;53.188;8.696;2023-04-28T00:07:04;5.00;99.90
16846;DHT22;8539;53.188;8.696;2023-04-28T00:09:30;5.00;99.90
16846;DHT22;8539;53.188;8.696;2023-04-28T00:11:56;5.00;99.90
16846;DHT22;8539;53.188;8.696;2023-04-28T00:14:23;5.10;99.90
16846;DHT22;8539;53.188;8.696;2023-04-28T00:16:49;4.90;99.90
16846;DHT22;8539;53.188;8.696;2023-04-28T00:19:15;5.00;99.90
16846;DHT22;8539;53.188;8.696;2023-04-28T00:21:41;5.00;99.90
16846;DHT22;8539;53.188;8.696;2023-04-28T00:24:07;5.00;99.90
16846;DHT22;8539;53.188;8.696;2023-04-28T00:26:33;5.00;99.90
16846;DHT22;8539;53.188;8.696;2023-04-28T00:29:00;5.00;99.90
16846;DHT22;8539;53.188;8.696;2023-04-28T00:31:26;5.00;99.90
16846;DHT22;8539;53.188;8.696;2023-04-28T00:33:52;5.00;99.90
16846;DHT22;8539;53.188;8.696;2023-04-28T00:36:18;4.90;99.90
16846;DHT22;8539;53.188;8.696;2023-04-28T00:38:47;4.90;99.90
16846;DHT22;8539;53.188;8.696;2023-04-28T00:41:13;5.30;99.90
16846;DHT22;8539;53.188;8.696;2023-04-28T00:43:49;4.90;99.90
16846;DHT22;8539;53.188;8.696;2023-04-28T00:46:25;4.80;99.90
16846;DHT22;8539;53.188;8.696;2023-04-28T00:48:53;4.80;99.90
16846;DHT22;8539;53.188;8.696;2023-04-28T00:51:19;4.80;99.90
16846;DHT22;8539;53.188;8.696;2023-04-28T00:53:46;4.80;99.90
16846;DHT22;8539;53.188;8.696;2023-04-28T00:56:12;4.80;99.90
16846;DHT22;8539;53.188;8.696;2023-04-28T00:58:38;4.80;99.90
16846;DHT22;8539;53.188;8.696;2023-04-28T01:01:06;5.00;99.90
16846;DHT22;8539;53.188;8.696;2023-04-28T01:03:38;4.80;99.90
16846;DHT22;8539;53.188;8.696;2023-04-28T01:06:08;4.80;99.90
16846;DHT22;8539;53.188;8.696;2023-04-28T01:08:36;4.70;99.90
16846;DHT22;8539;53.188;8.696;2023-04-28T01:11:03;4.70;99.90
16846;DHT22;8539;53.188;8.696;2023-04-28T01:13:29;4.80;99.90
16846;DHT22;8539;53.188;8.696;2023-04-28T01:15:55;4.70;99.90
16846;DHT22;8539;53.188;8.696;2023-04-28T01:18:22;4.70;99.90
16846;DHT22;8539;53.188;8.696;2023-04-28T01:20:48;4.80;99.90
16846;DHT22;8539;53.188;8.696;2023-04-28T01:23:16;4.70;99.90
16846;DHT22;8539;53.188;8.696;2023-04-28T01:25:43;4.60;99.90
16846;DHT22;8539;53.188;8.696;2023-04-28T01:28:10;4.60;99.90
16846;DHT22;8539;53.188;8.696;2023-04-28T01:30:36;4.60;99.90
16846;DHT22;8539;53.188;8.696;2023-04-28T01:33:02;4.60;99.90
16846;DHT22;8539;53.188;8.696;2023-04-28T01:35:29;4.60;99.90
16846;DHT22;8539;53.188;8.696;2023-04-28T01:37:56;4.60;99.90
16846;DHT22;8539;53.188;8.696;2023-04-28T01:40:22;4.60;99.90
16846;DHT22;8539;53.188;8.696;2023-04-28T01:42:48;4.60;99.90
16846;DHT22;8539;53.188;8.696;2023-04-28T01:45:14;4.60;99.90
16846;DHT22;8539;53.188;8.696;2023-04-28T01:47:40;4.60;99.90
16846;DHT22;8539;53.188;8.696;2023-04-28T01:50:07;4.60;99.90
16846;DHT22;8539;53.188;8.696;2023-04-28T01:52:33;4.60;99.90
16846;DHT22;8539;53.188;8.696;2023-04-28T01:54:59;4.60;99.90
16846;DHT22;8539;53.188;8.696;2023-04-28T01:57:25;4.60;99.90
16846;DHT22;8539;53.188;8.696;2023-04-28T01:59:54;4.60;99.90
16846;DHT22;8539;53.188;8.696;2023-04-28T02:02:20;4.60;99.90
16846;DHT22;8539;53.188;8.696;2023-04-28T02:04:46;4.60;99.90
16846;DHT22;8539;53.188;8.696;2023-04-28T02:07:12;4.60;99.90
16846;DHT22;8539;53.188;8.696;2023-04-28T02:09:39;4.60;99.90
16846;DHT22;8539;53.188;8.696;2023-04-28T02:12:05;4.90;99.90
16846;DHT22;8539;53.188;8.696;2023-04-28T02:14:31;4.50;99.90
16846;DHT22;8539;53.188;8.696;2023-04-28T02:16:57;4.60;99.90
16846;DHT22;8539;53.188;8.696;2023-04-28T02:19:24;4.50;99.90
16846;DHT22;8539;53.188;8.696;2023-04-28T02:21:50;4.50;99.90
16846;DHT22;8539;53.188;8.696;2023-04-28T02:24:18;4.50;99.90
16846;DHT22;8539;53.188;8.696;2023-04-28T02:26:44;5.10;99.90
16846;DHT22;8539;53.188;8.696;2023-04-28T02:29:10;4.50;99.90
16846;DHT22;8539;53.188;8.696;2023-04-28T02:31:36;4.40;99.90
16846;DHT22;8539;53.188;8.696;2023-04-28T02:34:03;4.40;99.90
16846;DHT22;8539;53.188;8.696;2023-04-28T02:36:29;4.50;99.90
16846;DHT22;8539;53.188;8.696;2023-04-28T02:38:56;4.40;99.90
16846;DHT22;8539;53.188;8.696;2023-04-28T02:41:23;4.40;99.90
16846;DHT22;8539;53.188;8.696;2023-04-28T02:43:49;4.30;99.90
16846;DHT22;8539;53.188;8.696;2023-04-28T02:46:15;4.40;99.90
16846;DHT22;8539;53.188;8.696;2023-04-28T02:48:41;4.30;99.90
16846;DHT22;8539;53.188;8.696;2023-04-28T02:51:07;4.30;99.90
16846;DHT22;8539;53.188;8.696;2023-04-28T02:53:33;4.30;99.90
16846;DHT22;8539;53.188;8.696;2023-04-28T02:55:59;4.30;99.90
16846;DHT22;8539;53.188;8.696;2023-04-28T02:58:26;4.30;99.90
16846;DHT22;8539;53.188;8.696;2023-04-28T03:00:52;4.50;99.90
16846;DHT22;8539;53.188;8.696;2023-04-28T03:03:18;4.40;99.90
16846;DHT22;8539;53.188;8.696;2023-04-28T03:05:45;4.20;99.90
16846;DHT22;8539;53.188;8.696;2023-04-28T03:08:11;4.30;99.90
16846;DHT22;8539;53.188;8.696;2023-04-28T03:10:37;4.20;99.90
16846;DHT22;8539;53.188;8.696;2023-04-28T03:13:03;4.60;99.90
16846;DHT22;8539;53.188;8.696;2023-04-28T03:15:29;4.10;99.90
16846;DHT22;8539;53.188;8.696;2023-04-28T03:17:55;4.10;99.90
16846;DHT22;8539;53.188;8.696;2023-04-28T03:20:29;4.10;99.90
16846;DHT22;8539;53.188;8.696;2023-04-28T03:22:59;4.10;99.90
16846;DHT22;8539;53.188;8.696;2023-04-28T03:25:26;4.10;99.90
16846;DHT22;8539;53.188;8.696;2023-04-28T03:27:52;4.00;99.90
16846;DHT22;8539;53.188;8.696;2023-04-28T03:30:19;4.00;99.90
16846;DHT22;8539;53.188;8.696;2023-04-28T03:32:45;4.00;99.90
16846;DHT22;8539;53.188;8.696;2023-04-28T03:35:11;4.00;99.90
16846;DHT22;8539;53.188;8.696;2023-04-28T03:37:38;4.00;99.90
16846;DHT22;8539;53.188;8.696;2023-04-28T03:40:05;4.00;99.90
16846;DHT22;8539;53.188;8.696;2023-04-28T03:42:31;4.10;99.90
16846;DHT22;8539;53.188;8.696;2023-04-28T03:44:57;4.00;99.90
16846;DHT22;8539;53.188;8.696;2023-04-28T03:47:23;4.10;99.90
16846;DHT22;8539;53.188;8.696;2023-04-28T03:49:49;4.10;99.90
16846;DHT22;8539;53.188;8.696;2023-04-28T03:52:15;4.10;99.90
16846;DHT22;8539;53.188;8.696;2023-04-28T03:54:41;4.20;99.90
16846;DHT22;8539;53.188;8.696;2023-04-28T03:57:07;4.10;99.90
16846;DHT22;8539;53.188;8.696;2023-04-28T03:59:33;4.10;99.90
16846;DHT22;8539;53.188;8.696;2023-04-28T04:01:59;4.10;99.90
16846;DHT22;8539;53.188;8.696;2023-04-28T04:04:26;4.10;99.90
16846;DHT22;8539;53.188;8.696;2023-04-28T04:06:52;4.20;99.90
16846;DHT22;8539;53.188;8.696;2023-04-28T04:09:18;4.40;99.90
16846;DHT22;8539;53.188;8.696;2023-04-28T04:11:44;4.20;99.90
16846;DHT22;8539;53.188;8.696;2023-04-28T04:14:10;4.20;99.90
16846;DHT22;8539;53.188;8.696;2023-04-28T04:16:36;4.20;99.90
16846;DHT22;8539;53.188;8.696;2023-04-28T04:19:02;4.20;99.90
16846;DHT22;8539;53.188;8.696;2023-04-28T04:21:28;4.20;99.90
16846;DHT22;8539;53.188;8.696;2023-04-28T04:23:54;4.20;99.90
16846;DHT22;8539;53.188;8.696;2023-04-28T04:26:21;4.20;99.90
16846;DHT22;8539;53.188;8.696;2023-04-28T04:28:47;4.20;99.90
16846;DHT22;8539;53.188;8.696;2023-04-28T04:31:13;4.80;99.90
16846;DHT22;8539;53.188;8.696;2023-04-28T04:33:40;4.30;99.90
16846;DHT22;8539;53.188;8.696;2023-04-28T04:36:06;5.00;99.90
16846;DHT22;8539;53.188;8.696;2023-04-28T04:38:32;4.30;99.90
16846;DHT22;8539;53.188;8.696;2023-04-28T04:40:58;4.30;99.90
16846;DHT22;8539;53.188;8.696;2023-04-28T04:43:24;4.30;99.90
16846;DHT22;8539;53.188;8.696;2023-04-28T04:45:50;4.50;99.90
16846;DHT22;8539;53.188;8.696;2023-04-28T04:48:16;4.40;99.90
16846;DHT22;8539;53.188;8.696;2023-04-28T04:50:42;4.40;99.90
16846;DHT22;8539;53.188;8.696;2023-04-28T04:53:09;4.50;99.90
16846;DHT22;8539;53.188;8.696;2023-04-28T04:55:35;4.50;99.90
16846;DHT22;8539;53.188;8.696;2023-04-28T04:58:01;4.60;99.90
16846;DHT22;8539;53.188;8.696;2023-04-28T05:00:27;4.60;99.90
16846;DHT22;8539;53.188;8.696;2023-04-28T05:02:54;4.60;99.90
16846;DHT22;8539;53.188;8.696;2023-04-28T05:05:20;4.60;99.90
16846;DHT22;8539;53.188;8.696;2023-04-28T05:07:46;4.60;99.90
16846;DHT22;8539;53.188;8.696;2023-04-28T05:10:12;4.80;99.90
16846;DHT22;8539;53.188;8.696;2023-04-28T05:12:38;5.00;99.90
16846;DHT22;8539;53.188;8.696;2023-04-28T05:15:05;4.70;99.90
16846;DHT22;8539;53.188;8.696;2023-04-28T05:17:32;4.70;99.90
16846;DHT22;8539;53.188;8.696;2023-04-28T05:19:59;4.80;99.90
16846;DHT22;8539;53.188;8.696;2023-04-28T05:22:25;4.80;99.90
16846;DHT22;8539;53.188;8.696;2023-04-28T05:24:51;4.80;99.90
16846;DHT22;8539;53.188;8.696;2023-04-28T05:27:18;4.90;99.90
16846;DHT22;8539;53.188;8.696;2023-04-28T05:29:45;4.90;99.90
16846;DHT22;8539;53.188;8.696;2023-04-28T05:32:12;5.00;99.90
16846;DHT22;8539;53.188;8.696;2023-04-28T05:34:38;5.10;99.90
16846;DHT22;8539;53.188;8.696;2023-04-28T05:37:04;5.10;99.90
16846;DHT22;8539;53.188;8.696;2023-04-28T05:39:31;5.20;99.90
16846;DHT22;8539;53.188;8.696;2023-04-28T05:41:57;5.30;99.90
16846;DHT22;8539;53.188;8.696;2023-04-28T05:44:26;5.40;99.90
16846;DHT22;8539;53.188;8.696;2023-04-28T05:46:52;5.40;99.90
16846;DHT22;8539;53.188;8.696;2023-04-28T05:49:18;5.50;99.90
16846;DHT22;8539;53.188;8.696;2023-04-28T05:51:44;5.50;99.90
16846;DHT22;8539;53.188;8.696;2023-04-28T05:54:10;5.50;99.90
16846;DHT22;8539;53.188;8.696;2023-04-28T05:56:36;6.00;99.90
16846;DHT22;8539;53.188;8.696;2023-04-28T05:59:02;5.80;99.90
16846;DHT22;8539;53.188;8.696;2023-04-28T06:01:32;5.80;99.90
16846;DHT22;8539;53.188;8.696;2023-04-28T06:03:58;5.70;99.90
16846;DHT22;8539;53.188;8.696;2023-04-28T06:06:25;5.80;99.90
16846;DHT22;8539;53.188;8.696;2023-04-28T06:08:52;5.80;99.90
16846;DHT22;8539;53.188;8.696;2023-04-28T06:11:18;5.90;99.90
16846;DHT22;8539;53.188;8.696;2023-04-28T06:13:49;6.00;99.90
16846;DHT22;8539;53.188;8.696;2023-04-28T06:16:15;6.10;99.90
16846;DHT22;8539;53.188;8.696;2023-04-28T06:18:42;6.40;99.90
16846;DHT22;8539;53.188;8.696;2023-04-28T06:21:08;6.10;99.90
16846;DHT22;8539;53.188;8.696;2023-04-28T06:23:34;6.10;99.90
16846;DHT22;8539;53.188;8.696;2023-04-28T06:26:01;6.30;99.90
16846;DHT22;8539;53.188;8.696;2023-04-28T06:28:27;6.20;99.90
16846;DHT22;8539;53.188;8.696;2023-04-28T06:30:53;6.30;99.90
16846;DHT22;8539;53.188;8.696;2023-04-28T06:33:19;6.40;99.90
16846;DHT22;8539;53.188;8.696;2023-04-28T06:35:45;6.50;99.90
16846;DHT22;8539;53.188;8.696;2023-04-28T06:38:11;6.60;99.90
16846;DHT22;8539;53.188;8.696;2023-04-28T06:40:37;6.70;99.90
16846;DHT22;8539;53.188;8.696;2023-04-28T06:43:05;7.00;99.90
16846;DHT22;8539;53.188;8.696;2023-04-28T06:45:31;6.90;99.90
16846;DHT22;8539;53.188;8.696;2023-04-28T06:47:57;7.10;99.90
16846;DHT22;8539;53.188;8.696;2023-04-28T06:50:23;7.10;99.90
16846;DHT22;8539;53.188;8.696;2023-04-28T06:52:49;7.20;99.90
16846;DHT22;8539;53.188;8.696;2023-04-28T06:55:16;7.30;99.90
16846;DHT22;8539;53.188;8.696;2023-04-28T06:57:43;7.30;99.90
16846;DHT22;8539;53.188;8.696;2023-04-28T07:00:09;7.40;99.90
16846;DHT22;8539;53.188;8.696;2023-04-28T07:02:36;7.50;99.90
16846;DHT22;8539;53.188;8.696;2023-04-28T07:05:03;7.60;99.90
16846;DHT22;8539;53.188;8.696;2023-04-28T07:07:30;7.70;99.90
16846;DHT22;8539;53.188;8.696;2023-04-28T07:09:56;7.70;99.90
16846;DHT22;8539;53.188;8.696;2023-04-28T07:12:22;7.70;99.90
16846;DHT22;8539;53.188;8.696;2023-04-28T07:14:48;7.80;99.90
16846;DHT22;8539;53.188;8.696;2023-04-28T07:17:15;7.70;99.90
16846;DHT22;8539;53.188;8.696;2023-04-28T07:19:41;7.80;99.90
16846;DHT22;8539;53.188;8.696;2023-04-28T07:22:07;7.70;99.90
16846;DHT22;8539;53.188;8.696;2023-04-28T07:24:33;7.80;99.90
16846;DHT22;8539;53.188;8.696;2023-04-28T07:26:59;7.80;99.90
16846;DHT22;8539;53.188;8.696;2023-04-28T07:29:26;7.90;99.90
16846;DHT22;8539;53.188;8.696;2023-04-28T07:31:59;8.00;99.90
16846;DHT22;8539;53.188;8.696;2023-04-28T07:34:26;8.10;99.90
16846;DHT22;8539;53.188;8.696;2023-04-28T07:36:53;8.20;99.90
16846;DHT22;8539;53.188;8.696;2023-04-28T07:39:19;8.30;99.90
16846;DHT22;8539;53.188;8.696;2023-04-28T07:41:45;8.40;99.90
16846;DHT22;8539;53.188;8.696;2023-04-28T07:44:12;8.60;99.90
16846;DHT22;8539;53.188;8.696;2023-04-28T07:46:38;8.70;99.90
16846;DHT22;8539;53.188;8.696;2023-04-28T07:49:04;8.90;99.90
16846;DHT22;8539;53.188;8.696;2023-04-28T07:51:30;9.00;99.90
16846;DHT22;8539;53.188;8.696;2023-04-28T07:53:57;9.20;99.90
16846;DHT22;8539;53.188;8.696;2023-04-28T07:56:23;9.30;99.90
16846;DHT22;8539;53.188;8.696;2023-04-28T07:58:51;9.30;99.90
16846;DHT22;8539;53.188;8.696;2023-04-28T08:01:17;9.30;99.90
16846;DHT22;8539;53.188;8.696;2023-04-28T08:03:43;9.30;99.90
16846;DHT22;8539;53.188;8.696;2023-04-28T08:06:10;9.20;99.90
16846;DHT22;8539;53.188;8.696;2023-04-28T08:08:36;9.20;99.90
16846;DHT22;8539;53.188;8.696;2023-04-28T08:11:02;9.30;99.90
16846;DHT22;8539;53.188;8.696;2023-04-28T08:13:28;9.10;99.90
16846;DHT22;8539;53.188;8.696;2023-04-28T08:15:55;9.10;99.90
16846;DHT22;8539;53.188;8.696;2023-04-28T08:18:22;9.20;99.90
16846;DHT22;8539;53.188;8.696;2023-04-28T08:20:48;9.20;99.90
16846;DHT22;8539;53.188;8.696;2023-04-28T08:23:14;9.30;99.90
16846;DHT22;8539;53.188;8.696;2023-04-28T08:25:41;9.40;99.90
16846;DHT22;8539;53.188;8.696;2023-04-28T08:28:07;9.60;99.90
16846;DHT22;8539;53.188;8.696;2023-04-28T08:30:34;9.70;99.90
16846;DHT22;8539;53.188;8.696;2023-04-28T08:33:00;9.80;99.90
16846;DHT22;8539;53.188;8.696;2023-04-28T08:35:26;9.90;99.90
16846;DHT22;8539;53.188;8.696;2023-04-28T08:37:52;9.90;99.90
16846;DHT22;8539;53.188;8.696;2023-04-28T08:40:18;10.00;99.90
16846;DHT22;8539;53.188;8.696;2023-04-28T08:42:46;10.10;99.90
16846;DHT22;8539;53.188;8.696;2023-04-28T08:45:13;10.20;99.90
16846;DHT22;8539;53.188;8.696;2023-04-28T08:47:39;10.30;99.90
16846;DHT22;8539;53.188;8.696;2023-04-28T08:50:11;10.40;99.90
16846;DHT22;8539;53.188;8.696;2023-04-28T08:52:39;10.50;99.90
16846;DHT22;8539;53.188;8.696;2023-04-28T08:57:43;10.70;99.90
16846;DHT22;8539;53.188;8.696;2023-04-28T09:00:11;10.80;99.90
16846;DHT22;8539;53.188;8.696;2023-04-28T09:02:37;11.00;99.90
16846;DHT22;8539;53.188;8.696;2023-04-28T09:05:07;11.20;99.90
16846;DHT22;8539;53.188;8.696;2023-04-28T09:07:34;11.40;99.90
16846;DHT22;8539;53.188;8.696;2023-04-28T09:10:15;11.70;99.90
16846;DHT22;8539;53.188;8.696;2023-04-28T09:12:43;11.90;99.90
16846;DHT22;8539;53.188;8.696;2023-04-28T09:15:10;12.00;99.90
16846;DHT22;8539;53.188;8.696;2023-04-28T09:17:47;12.10;99.90
16846;DHT22;8539;53.188;8.696;2023-04-28T09:20:22;12.30;99.90
16846;DHT22;8539;53.188;8.696;2023-04-28T09:22:49;12.50;99.90
16846;DHT22;8539;53.188;8.696;2023-04-28T09:25:17;12.70;99.90
16846;DHT22;8539;53.188;8.696;2023-04-28T09:27:44;12.70;99.90
16846;DHT22;8539;53.188;8.696;2023-04-28T09:30:11;12.70;99.90
16846;DHT22;8539;53.188;8.696;2023-04-28T09:32:37;12.80;99.90
16846;DHT22;8539;53.188;8.696;2023-04-28T09:35:03;12.70;99.90
16846;DHT22;8539;53.188;8.696;2023-04-28T09:37:34;12.60;99.90
16846;DHT22;8539;53.188;8.696;2023-04-28T09:40:07;12.60;99.90
16846;DHT22;8539;53.188;8.696;2023-04-28T09:42:40;12.60;99.90
16846;DHT22;8539;53.188;8.696;2023-04-28T09:45:08;12.60;99.90
16846;DHT22;8539;53.188;8.696;2023-04-28T09:47:40;12.60;99.90
16846;DHT22;8539;53.188;8.696;2023-04-28T09:50:08;12.50;99.90
16846;DHT22;8539;53.188;8.696;2023-04-28T09:52:37;12.50;99.90
16846;DHT22;8539;53.188;8.696;2023-04-28T09:55:05;12.60;99.90
16846;DHT22;8539;53.188;8.696;2023-04-28T09:57:33;12.70;99.90
16846;DHT22;8539;53.188;8.696;2023-04-28T10:00:01;12.80;99.90
16846;DHT22;8539;53.188;8.696;2023-04-28T10:02:33;12.90;99.90
16846;DHT22;8539;53.188;8.696;2023-04-28T10:05:00;13.00;99.90
16846;DHT22;8539;53.188;8.696;2023-04-28T10:07:26;13.10;99.90
16846;DHT22;8539;53.188;8.696;2023-04-28T10:09:54;13.10;99.90
16846;DHT22;8539;53.188;8.696;2023-04-28T10:12:22;13.30;99.90
16846;DHT22;8539;53.188;8.696;2023-04-28T10:14:50;13.50;99.90
16846;DHT22;8539;53.188;8.696;2023-04-28T10:17:21;13.70;99.90
16846;DHT22;8539;53.188;8.696;2023-04-28T10:19:49;14.00;99.90
16846;DHT22;8539;53.188;8.696;2023-04-28T10:25:25;14.40;99.90
16846;DHT22;8539;53.188;8.696;2023-04-28T10:27:52;14.60;99.90
16846;DHT22;8539;53.188;8.696;2023-04-28T10:30:22;14.70;99.90
16846;DHT22;8539;53.188;8.696;2023-04-28T10:35:45;14.90;99.90
16846;DHT22;8539;53.188;8.696;2023-04-28T10:38:18;14.90;99.90
16846;DHT22;8539;53.188;8.696;2023-04-28T10:40:49;14.80;99.90
16846;DHT22;8539;53.188;8.696;2023-04-28T10:48:51;14.60;99.90
16846;DHT22;8539;53.188;8.696;2023-04-28T10:56:14;14.20;99.90
16846;DHT22;8539;53.188;8.696;2023-04-28T10:58:42;14.00;99.90
16846;DHT22;8539;53.188;8.696;2023-04-28T11:08:51;13.50;99.90
16846;DHT22;8539;53.188;8.696;2023-04-28T11:11:24;13.40;99.90
16846;DHT22;8539;53.188;8.696;2023-04-28T11:17:04;13.30;99.90
16846;DHT22;8539;53.188;8.696;2023-04-28T11:19:38;13.30;99.90
16846;DHT22;8539;53.188;8.696;2023-04-28T11:22:14;13.30;99.90
16846;DHT22;8539;53.188;8.696;2023-04-28T11:25:00;13.20;99.90
16846;DHT22;8539;53.188;8.696;2023-04-28T11:27:29;13.20;99.90
16846;DHT22;8539;53.188;8.696;2023-04-28T11:29:56;13.20;99.90
16846;DHT22;8539;53.188;8.696;2023-04-28T11:32:27;13.30;99.90
16846;DHT22;8539;53.188;8.696;2023-04-28T11:34:54;13.40;99.90
16846;DHT22;8539;53.188;8.696;2023-04-28T11:37:20;13.50;99.90
16846;DHT22;8539;53.188;8.696;2023-04-28T11:39:48;13.50;99.90
16846;DHT22;8539;53.188;8.696;2023-04-28T11:42:15;13.40;99.90
16846;DHT22;8539;53.188;8.696;2023-04-28T11:44:52;13.40;99.90
16846;DHT22;8539;53.188;8.696;2023-04-28T11:47:31;13.30;99.90
16846;DHT22;8539;53.188;8.696;2023-04-28T11:49:58;13.40;99.90
16846;DHT22;8539;53.188;8.696;2023-04-28T11:52:25;13.30;99.90
16846;DHT22;8539;53.188;8.696;2023-04-28T11:54:53;13.40;99.90
16846;DHT22;8539;53.188;8.696;2023-04-28T11:57:20;13.30;99.90
16846;DHT22;8539;53.188;8.696;2023-04-28T11:59:48;13.30;99.90
16846;DHT22;8539;53.188;8.696;2023-04-28T12:02:15;13.30;99.90
16846;DHT22;8539;53.188;8.696;2023-04-28T12:04:43;13.30;99.90
16846;DHT22;8539;53.188;8.696;2023-04-28T12:07:17;13.30;99.90
16846;DHT22;8539;53.188;8.696;2023-04-28T12:10:08;13.20;99.90
16846;DHT22;8539;53.188;8.696;2023-04-28T12:12:37;13.20;99.90
16846;DHT22;8539;53.188;8.696;2023-04-28T12:15:05;13.20;99.90
16846;DHT22;8539;53.188;8.696;2023-04-28T12:17:35;13.30;99.90
16846;DHT22;8539;53.188;8.696;2023-04-28T12:20:05;13.40;99.90
16846;DHT22;8539;53.188;8.696;2023-04-28T12:25:10;13.70;99.90
16846;DHT22;8539;53.188;8.696;2023-04-28T12:27:39;13.70;99.90
16846;DHT22;8539;53.188;8.696;2023-04-28T12:32:47;13.70;99.90
16846;DHT22;8539;53.188;8.696;2023-04-28T12:35:14;13.70;99.90
16846;DHT22;8539;53.188;8.696;2023-04-28T12:37:43;13.70;99.90
16846;DHT22;8539;53.188;8.696;2023-04-28T12:40:10;13.80;99.90
16846;DHT22;8539;53.188;8.696;2023-04-28T12:42:36;13.80;99.90
16846;DHT22;8539;53.188;8.696;2023-04-28T12:45:03;13.80;99.90
16846;DHT22;8539;53.188;8.696;2023-04-28T12:47:30;13.90;99.90
16846;DHT22;8539;53.188;8.696;2023-04-28T12:49:56;13.90;99.90
16846;DHT22;8539;53.188;8.696;2023-04-28T12:52:22;13.90;99.90
16846;DHT22;8539;53.188;8.696;2023-04-28T12:54:48;13.80;99.90
16846;DHT22;8539;53.188;8.696;2023-04-28T12:57:15;13.80;99.90
16846;DHT22;8539;53.188;8.696;2023-04-28T12:59:42;13.70;99.90
16846;DHT22;8539;53.188;8.696;2023-04-28T13:02:09;13.70;99.90
16846;DHT22;8539;53.188;8.696;2023-04-28T13:04:36;13.70;99.90
16846;DHT22;8539;53.188;8.696;2023-04-28T13:07:02;13.80;99.90
16846;DHT22;8539;53.188;8.696;2023-04-28T13:09:29;13.80;99.90
16846;DHT22;8539;53.188;8.696;2023-04-28T13:11:55;14.00;99.90
16846;DHT22;8539;53.188;8.696;2023-04-28T13:14:22;14.00;99.90
16846;DHT22;8539;53.188;8.696;2023-04-28T13:16:52;14.20;99.90
16846;DHT22;8539;53.188;8.696;2023-04-28T13:19:18;14.30;99.90
16846;DHT22;8539;53.188;8.696;2023-04-28T13:21:44;14.40;99.90
16846;DHT22;8539;53.188;8.696;2023-04-28T13:24:12;14.40;99.90
16846;DHT22;8539;53.188;8.696;2023-04-28T13:26:41;14.50;99.90
16846;DHT22;8539;53.188;8.696;2023-04-28T13:29:12;14.40;99.90
16846;DHT22;8539;53.188;8.696;2023-04-28T13:31:39;14.30;99.90
16846;DHT22;8539;53.188;8.696;2023-04-28T13:34:05;14.20;99.90
16846;DHT22;8539;53.188;8.696;2023-04-28T13:36:32;14.10;99.90
16846;DHT22;8539;53.188;8.696;2023-04-28T13:39:00;14.20;99.90
16846;DHT22;8539;53.188;8.696;2023-04-28T13:41:26;14.20;99.90
16846;DHT22;8539;53.188;8.696;2023-04-28T13:43:52;14.20;99.90
16846;DHT22;8539;53.188;8.696;2023-04-28T13:46:19;14.10;99.90
16846;DHT22;8539;53.188;8.696;2023-04-28T13:48:46;14.10;99.90
16846;DHT22;8539;53.188;8.696;2023-04-28T13:51:12;14.10;99.90
16846;DHT22;8539;53.188;8.696;2023-04-28T13:53:38;14.10;99.90
16846;DHT22;8539;53.188;8.696;2023-04-28T13:56:05;14.10;99.90
16846;DHT22;8539;53.188;8.696;2023-04-28T13:58:31;14.20;99.90
16846;DHT22;8539;53.188;8.696;2023-04-28T14:00:58;14.30;99.90
16846;DHT22;8539;53.188;8.696;2023-04-28T14:03:24;14.30;99.90
16846;DHT22;8539;53.188;8.696;2023-04-28T14:05:51;14.30;99.90
16846;DHT22;8539;53.188;8.696;2023-04-28T14:08:19;14.40;99.90
16846;DHT22;8539;53.188;8.696;2023-04-28T14:10:45;14.50;99.90
16846;DHT22;8539;53.188;8.696;2023-04-28T14:13:13;14.60;99.90
16846;DHT22;8539;53.188;8.696;2023-04-28T14:15:39;14.60;99.90
16846;DHT22;8539;53.188;8.696;2023-04-28T14:18:07;14.70;99.90
16846;DHT22;8539;53.188;8.696;2023-04-28T14:20:34;14.70;99.90
16846;DHT22;8539;53.188;8.696;2023-04-28T14:23:01;14.80;99.90
16846;DHT22;8539;53.188;8.696;2023-04-28T14:25:27;14.80;99.90
16846;DHT22;8539;53.188;8.696;2023-04-28T14:27:53;14.80;99.90
16846;DHT22;8539;53.188;8.696;2023-04-28T14:30:22;15.00;99.90
16846;DHT22;8539;53.188;8.696;2023-04-28T14:32:49;15.20;99.90
16846;DHT22;8539;53.188;8.696;2023-04-28T14:35:15;15.30;99.90
16846;DHT22;8539;53.188;8.696;2023-04-28T14:37:42;15.40;99.90
16846;DHT22;8539;53.188;8.696;2023-04-28T14:40:09;15.30;99.90
16846;DHT22;8539;53.188;8.696;2023-04-28T14:42:36;15.30;99.90
16846;DHT22;8539;53.188;8.696;2023-04-28T14:45:08;15.20;99.90
16846;DHT22;8539;53.188;8.696;2023-04-28T14:47:55;15.20;99.90
16846;DHT22;8539;53.188;8.696;2023-04-28T14:50:21;15.10;99.90
16846;DHT22;8539;53.188;8.696;2023-04-28T14:52:47;15.20;99.90
16846;DHT22;8539;53.188;8.696;2023-04-28T14:55:13;15.20;99.90
16846;DHT22;8539;53.188;8.696;2023-04-28T14:57:40;15.30;99.90
16846;DHT22;8539;53.188;8.696;2023-04-28T15:00:07;15.30;99.90
16846;DHT22;8539;53.188;8.696;2023-04-28T15:02:34;15.40;99.90
16846;DHT22;8539;53.188;8.696;2023-04-28T15:05:00;15.40;99.90
16846;DHT22;8539;53.188;8.696;2023-04-28T15:07:27;15.40;99.90
16846;DHT22;8539;53.188;8.696;2023-04-28T15:09:58;15.40;99.90
16846;DHT22;8539;53.188;8.696;2023-04-28T15:12:29;15.30;99.90
16846;DHT22;8539;53.188;8.696;2023-04-28T15:14:57;15.20;99.90
16846;DHT22;8539;53.188;8.696;2023-04-28T15:17:23;15.10;99.90
16846;DHT22;8539;53.188;8.696;2023-04-28T15:19:49;15.00;99.90
16846;DHT22;8539;53.188;8.696;2023-04-28T15:22:16;15.00;99.90
16846;DHT22;8539;53.188;8.696;2023-04-28T15:24:42;14.90;99.90
16846;DHT22;8539;53.188;8.696;2023-04-28T15:27:08;14.80;99.90
16846;DHT22;8539;53.188;8.696;2023-04-28T15:29:34;14.80;99.90
16846;DHT22;8539;53.188;8.696;2023-04-28T15:32:00;14.80;99.90
16846;DHT22;8539;53.188;8.696;2023-04-28T15:34:26;14.70;99.90
16846;DHT22;8539;53.188;8.696;2023-04-28T15:36:52;14.60;99.90
16846;DHT22;8539;53.188;8.696;2023-04-28T15:39:18;14.50;99.90
16846;DHT22;8539;53.188;8.696;2023-04-28T15:41:45;14.30;99.90
16846;DHT22;8539;53.188;8.696;2023-04-28T15:44:11;14.20;99.90
16846;DHT22;8539;53.188;8.696;2023-04-28T15:46:39;14.00;99.90
16846;DHT22;8539;53.188;8.696;2023-04-28T15:49:06;13.80;99.90
16846;DHT22;8539;53.188;8.696;2023-04-28T15:51:33;13.70;99.90
16846;DHT22;8539;53.188;8.696;2023-04-28T15:53:59;13.50;99.90
16846;DHT22;8539;53.188;8.696;2023-04-28T15:56:26;13.40;99.90
16846;DHT22;8539;53.188;8.696;2023-04-28T15:58:52;13.30;99.90
16846;DHT22;8539;53.188;8.696;2023-04-28T16:01:19;13.20;99.90
16846;DHT22;8539;53.188;8.696;2023-04-28T16:04:17;13.10;99.90
16846;DHT22;8539;53.188;8.696;2023-04-28T16:06:57;13.00;99.90
16846;DHT22;8539;53.188;8.696;2023-04-28T16:09:27;12.90;99.90
16846;DHT22;8539;53.188;8.696;2023-04-28T16:11:54;12.90;99.90
16846;DHT22;8539;53.188;8.696;2023-04-28T16:14:22;12.80;99.90
16846;DHT22;8539;53.188;8.696;2023-04-28T16:16:48;12.80;99.90
16846;DHT22;8539;53.188;8.696;2023-04-28T16:19:15;12.70;99.90
16846;DHT22;8539;53.188;8.696;2023-04-28T16:21:41;12.70;99.90
16846;DHT22;8539;53.188;8.696;2023-04-28T16:24:07;12.70;99.90
16846;DHT22;8539;53.188;8.696;2023-04-28T16:26:33;12.70;99.90
16846;DHT22;8539;53.188;8.696;2023-04-28T16:28:59;12.60;99.90
16846;DHT22;8539;53.188;8.696;2023-04-28T16:31:25;12.60;99.90